sensor_id;sensor_type;location;lat;lon;timestamp;pressure;altitude;pressure_sealevel;temperature;humidity
38718;BME280;24468;52.128;9.278;2022-11-24T00:01:20;99550.16;;;8.20;100.00
38718;BME280;24468;52.128;9.278;2022-11-24T00:03:57;99557.41;;;8.18;100.00
38718;BME280;24468;52.128;9.278;2022-11-24T00:06:22;99561.63;;;8.24;100.00
38718;BME280;24468;52.128;9.278;2022-11-24T00:08:48;99556.72;;;8.32;100.00
38718;BME280;24468;52.128;9.278;2022-11-24T00:11:17;99560.88;;;8.39;100.00
38718;BME280;24468;52.128;9.278;2022-11-24T00:13:43;99557.34;;;8.37;100.00
38718;BME280;24468;52.128;9.278;2022-11-24T00:16:10;99561.34;;;8.48;100.00
38718;BME280;24468;52.128;9.278;2022-11-24T00:18:40;99561.50;;;8.44;100.00
38718;BME280;24468;52.128;9.278;2022-11-24T00:21:06;99565.28;;;8.40;100.00
38718;BME280;24468;52.128;9.278;2022-11-24T00:23:31;99564.47;;;8.38;100.00
38718;BME280;24468;52.128;9.278;2022-11-24T00:26:12;99564.44;;;8.40;100.00
38718;BME280;24468;52.128;9.278;2022-11-24T00:28:38;99572.19;;;8.46;100.00
38718;BME280;24468;52.128;9.278;2022-11-24T00:31:12;99571.38;;;8.44;100.00
38718;BME280;24468;52.128;9.278;2022-11-24T00:33:38;99573.19;;;8.43;100.00
38718;BME280;24468;52.128;9.278;2022-11-24T00:36:04;99572.88;;;8.50;100.00
38718;BME280;24468;52.128;9.278;2022-11-24T00:38:29;99578.88;;;8.55;100.00
38718;BME280;24468;52.128;9.278;2022-11-24T00:40:55;99579.16;;;8.50;100.00
38718;BME280;24468;52.128;9.278;2022-11-24T00:43:20;99574.81;;;8.48;100.00
38718;BME280;24468;52.128;9.278;2022-11-24T00:45:46;99575.19;;;8.40;100.00
38718;BME280;24468;52.128;9.278;2022-11-24T00:48:11;99577.56;;;8.27;100.00
38718;BME280;24468;52.128;9.278;2022-11-24T00:50:36;99583.75;;;8.29;100.00
38718;BME280;24468;52.128;9.278;2022-11-24T00:53:02;99589.59;;;8.37;100.00
38718;BME280;24468;52.128;9.278;2022-11-24T00:55:27;99586.28;;;8.32;100.00
38718;BME280;24468;52.128;9.278;2022-11-24T00:57:53;99587.38;;;8.28;100.00
38718;BME280;24468;52.128;9.278;2022-11-24T01:00:18;99591.81;;;8.29;100.00
38718;BME280;24468;52.128;9.278;2022-11-24T01:02:44;99597.09;;;8.31;100.00
38718;BME280;24468;52.128;9.278;2022-11-24T01:05:09;99600.81;;;8.28;100.00
38718;BME280;24468;52.128;9.278;2022-11-24T01:07:35;99604.38;;;8.29;100.00
38718;BME280;24468;52.128;9.278;2022-11-24T01:10:00;99603.38;;;8.31;100.00
38718;BME280;24468;52.128;9.278;2022-11-24T01:12:26;99603.66;;;8.25;100.00
38718;BME280;24468;52.128;9.278;2022-11-24T01:14:51;99615.50;;;8.21;100.00
38718;BME280;24468;52.128;9.278;2022-11-24T01:17:17;99607.22;;;8.26;100.00
38718;BME280;24468;52.128;9.278;2022-11-24T01:19:42;99608.78;;;8.12;100.00
38718;BME280;24468;52.128;9.278;2022-11-24T01:22:08;99617.06;;;8.08;100.00
38718;BME280;24468;52.128;9.278;2022-11-24T01:24:33;99616.25;;;8.06;100.00
38718;BME280;24468;52.128;9.278;2022-11-24T01:26:58;99617.16;;;7.68;100.00
38718;BME280;24468;52.128;9.278;2022-11-24T01:29:24;99618.34;;;7.82;100.00
38718;BME280;24468;52.128;9.278;2022-11-24T01:31:50;99616.84;;;7.93;100.00
38718;BME280;24468;52.128;9.278;2022-11-24T01:34:15;99618.81;;;7.90;100.00
38718;BME280;24468;52.128;9.278;2022-11-24T01:36:41;99630.53;;;8.06;100.00
38718;BME280;24468;52.128;9.278;2022-11-24T01:39:07;99631.72;;;8.00;100.00
38718;BME280;24468;52.128;9.278;2022-11-24T01:41:32;99629.47;;;8.10;100.00
38718;BME280;24468;52.128;9.278;2022-11-24T01:43:58;99629.16;;;8.16;100.00
38718;BME280;24468;52.128;9.278;2022-11-24T01:51:33;99635.25;;;8.20;100.00
38718;BME280;24468;52.128;9.278;2022-11-24T01:54:40;99623.41;;;8.24;100.00
38718;BME280;24468;52.128;9.278;2022-11-24T01:57:34;99626.44;;;8.35;100.00
38718;BME280;24468;52.128;9.278;2022-11-24T02:00:09;99626.53;;;8.34;100.00
38718;BME280;24468;52.128;9.278;2022-11-24T02:02:35;99625.47;;;8.36;100.00
38718;BME280;24468;52.128;9.278;2022-11-24T02:05:05;99621.69;;;8.42;100.00
38718;BME280;24468;52.128;9.278;2022-11-24T02:07:32;99634.06;;;8.44;100.00
38718;BME280;24468;52.128;9.278;2022-11-24T02:10:11;99630.34;;;8.47;100.00
38718;BME280;24468;52.128;9.278;2022-11-24T02:12:38;99633.03;;;8.47;100.00
38718;BME280;24468;52.128;9.278;2022-11-24T02:15:07;99633.28;;;8.60;100.00
38718;BME280;24468;52.128;9.278;2022-11-24T02:17:32;99639.16;;;8.68;100.00
38718;BME280;24468;52.128;9.278;2022-11-24T02:20:02;99640.03;;;8.68;100.00
38718;BME280;24468;52.128;9.278;2022-11-24T02:22:34;99638.84;;;8.74;100.00
38718;BME280;24468;52.128;9.278;2022-11-24T02:27:47;99641.69;;;8.88;100.00
38718;BME280;24468;52.128;9.278;2022-11-24T02:30:13;99651.97;;;8.98;100.00
38718;BME280;24468;52.128;9.278;2022-11-24T02:32:39;99647.53;;;8.97;100.00
38718;BME280;24468;52.128;9.278;2022-11-24T02:35:07;99653.53;;;9.02;100.00
38718;BME280;24468;52.128;9.278;2022-11-24T02:37:33;99654.34;;;9.04;100.00
38718;BME280;24468;52.128;9.278;2022-11-24T02:39:58;99649.28;;;8.98;100.00
38718;BME280;24468;52.128;9.278;2022-11-24T02:42:24;99648.78;;;9.07;100.00
38718;BME280;24468;52.128;9.278;2022-11-24T02:44:53;99649.28;;;8.98;100.00
38718;BME280;24468;52.128;9.278;2022-11-24T02:47:19;99656.63;;;9.11;100.00
38718;BME280;24468;52.128;9.278;2022-11-24T02:49:45;99651.25;;;9.11;100.00
38718;BME280;24468;52.128;9.278;2022-11-24T02:52:10;99652.81;;;9.16;100.00
38718;BME280;24468;52.128;9.278;2022-11-24T02:54:35;99666.44;;;9.12;100.00
38718;BME280;24468;52.128;9.278;2022-11-24T02:57:01;99666.03;;;9.20;100.00
38718;BME280;24468;52.128;9.278;2022-11-24T02:59:26;99659.22;;;9.13;100.00
38718;BME280;24468;52.128;9.278;2022-11-24T03:01:52;99670.09;;;9.11;100.00
38718;BME280;24468;52.128;9.278;2022-11-24T03:04:17;99670.63;;;9.18;100.00
38718;BME280;24468;52.128;9.278;2022-11-24T03:06:43;99673.47;;;9.15;100.00
38718;BME280;24468;52.128;9.278;2022-11-24T03:09:09;99677.19;;;9.12;100.00
38718;BME280;24468;52.128;9.278;2022-11-24T03:11:35;99680.00;;;9.11;100.00
38718;BME280;24468;52.128;9.278;2022-11-24T03:14:01;99678.31;;;9.08;100.00
38718;BME280;24468;52.128;9.278;2022-11-24T03:16:26;99679.13;;;9.10;100.00
38718;BME280;24468;52.128;9.278;2022-11-24T03:18:52;99679.34;;;9.06;100.00
38718;BME280;24468;52.128;9.278;2022-11-24T03:21:18;99676.19;;;8.98;100.00
38718;BME280;24468;52.128;9.278;2022-11-24T03:23:43;99684.16;;;8.99;100.00
38718;BME280;24468;52.128;9.278;2022-11-24T03:26:11;99678.19;;;8.94;100.00
38718;BME280;24468;52.128;9.278;2022-11-24T03:28:36;99683.13;;;9.02;100.00
38718;BME280;24468;52.128;9.278;2022-11-24T03:31:02;99684.25;;;8.98;100.00
38718;BME280;24468;52.128;9.278;2022-11-24T03:33:28;99686.25;;;8.94;100.00
38718;BME280;24468;52.128;9.278;2022-11-24T03:35:53;99684.25;;;8.98;100.00
38718;BME280;24468;52.128;9.278;2022-11-24T03:38:19;99688.13;;;8.92;100.00
38718;BME280;24468;52.128;9.278;2022-11-24T03:40:44;99692.47;;;8.77;100.00
38718;BME280;24468;52.128;9.278;2022-11-24T03:43:09;99695.16;;;8.77;100.00
38718;BME280;24468;52.128;9.278;2022-11-24T03:45:35;99699.50;;;8.80;100.00
38718;BME280;24468;52.128;9.278;2022-11-24T03:48:00;99699.75;;;8.75;100.00
38718;BME280;24468;52.128;9.278;2022-11-24T03:50:26;99704.34;;;8.73;100.00
38718;BME280;24468;52.128;9.278;2022-11-24T03:52:51;99713.91;;;8.79;100.00
38718;BME280;24468;52.128;9.278;2022-11-24T03:55:17;99712.06;;;8.62;100.00
38718;BME280;24468;52.128;9.278;2022-11-24T03:57:42;99712.78;;;8.83;100.00
38718;BME280;24468;52.128;9.278;2022-11-24T04:00:08;99721.03;;;8.80;100.00
38718;BME280;24468;52.128;9.278;2022-11-24T04:02:34;99713.84;;;8.80;100.00
38718;BME280;24468;52.128;9.278;2022-11-24T04:04:59;99719.28;;;8.79;100.00
38718;BME280;24468;52.128;9.278;2022-11-24T04:07:25;99722.19;;;8.74;100.00
38718;BME280;24468;52.128;9.278;2022-11-24T04:09:50;99728.59;;;8.72;100.00
38718;BME280;24468;52.128;9.278;2022-11-24T04:12:16;99730.28;;;8.74;100.00
38718;BME280;24468;52.128;9.278;2022-11-24T04:15:00;99726.06;;;8.68;100.00
38718;BME280;24468;52.128;9.278;2022-11-24T04:17:26;99724.78;;;8.58;100.00
38718;BME280;24468;52.128;9.278;2022-11-24T04:19:51;99729.59;;;8.52;100.00
38718;BME280;24468;52.128;9.278;2022-11-24T04:22:17;99730.47;;;8.52;100.00
38718;BME280;24468;52.128;9.278;2022-11-24T04:24:42;99734.47;;;8.43;100.00
38718;BME280;24468;52.128;9.278;2022-11-24T04:27:08;99739.31;;;8.35;100.00
38718;BME280;24468;52.128;9.278;2022-11-24T04:29:33;99738.75;;;8.10;100.00
38718;BME280;24468;52.128;9.278;2022-11-24T04:31:58;99744.41;;;8.04;100.00
38718;BME280;24468;52.128;9.278;2022-11-24T04:34:24;99752.59;;;8.00;100.00
38718;BME280;24468;52.128;9.278;2022-11-24T04:36:49;99746.78;;;7.91;100.00
38718;BME280;24468;52.128;9.278;2022-11-24T04:39:15;99751.06;;;7.95;100.00
38718;BME280;24468;52.128;9.278;2022-11-24T04:41:40;99761.94;;;7.92;100.00
38718;BME280;24468;52.128;9.278;2022-11-24T04:44:06;99762.75;;;7.94;100.00
38718;BME280;24468;52.128;9.278;2022-11-24T04:46:31;99762.97;;;7.89;100.00
38718;BME280;24468;52.128;9.278;2022-11-24T04:48:56;99768.47;;;7.86;100.00
38718;BME280;24468;52.128;9.278;2022-11-24T04:51:22;99761.75;;;7.96;100.00
38718;BME280;24468;52.128;9.278;2022-11-24T04:53:47;99770.00;;;7.92;100.00
38718;BME280;24468;52.128;9.278;2022-11-24T04:56:13;99760.94;;;7.94;100.00
38718;BME280;24468;52.128;9.278;2022-11-24T04:58:39;99766.47;;;7.91;100.00
38718;BME280;24468;52.128;9.278;2022-11-24T05:01:07;99770.16;;;7.89;100.00
38718;BME280;24468;52.128;9.278;2022-11-24T05:03:34;99767.41;;;7.90;100.00
38718;BME280;24468;52.128;9.278;2022-11-24T05:06:00;99775.03;;;7.99;100.00
38718;BME280;24468;52.128;9.278;2022-11-24T05:08:26;99773.00;;;8.05;100.00
38718;BME280;24468;52.128;9.278;2022-11-24T05:10:51;99772.19;;;8.02;100.00
38718;BME280;24468;52.128;9.278;2022-11-24T05:13:17;99780.19;;;8.04;100.00
38718;BME280;24468;52.128;9.278;2022-11-24T05:15:42;99780.34;;;8.01;100.00
38718;BME280;24468;52.128;9.278;2022-11-24T05:18:11;99785.78;;;7.99;100.00
38718;BME280;24468;52.128;9.278;2022-11-24T05:20:37;99796.03;;;8.10;100.00
38718;BME280;24468;52.128;9.278;2022-11-24T05:23:03;99789.13;;;8.05;100.00
38718;BME280;24468;52.128;9.278;2022-11-24T05:25:29;99799.38;;;8.15;100.00
38718;BME280;24468;52.128;9.278;2022-11-24T05:27:58;99793.13;;;8.15;100.00
38718;BME280;24468;52.128;9.278;2022-11-24T05:30:24;99796.41;;;8.21;100.00
38718;BME280;24468;52.128;9.278;2022-11-24T05:32:49;99792.50;;;8.29;100.00
38718;BME280;24468;52.128;9.278;2022-11-24T05:35:15;99794.53;;;8.23;100.00
38718;BME280;24468;52.128;9.278;2022-11-24T05:37:41;99789.72;;;8.30;100.00
38718;BME280;24468;52.128;9.278;2022-11-24T05:40:06;99784.84;;;8.38;100.00
38718;BME280;24468;52.128;9.278;2022-11-24T05:42:32;99793.00;;;8.37;100.00
38718;BME280;24468;52.128;9.278;2022-11-24T05:45:13;99800.88;;;8.41;100.00
38718;BME280;24468;52.128;9.278;2022-11-24T05:47:40;99809.16;;;8.56;100.00
38718;BME280;24468;52.128;9.278;2022-11-24T05:50:07;99816.38;;;8.35;100.00
38718;BME280;24468;52.128;9.278;2022-11-24T05:52:33;99812.78;;;8.55;100.00
38718;BME280;24468;52.128;9.278;2022-11-24T05:54:58;99816.44;;;8.54;100.00
38718;BME280;24468;52.128;9.278;2022-11-24T05:57:24;99817.84;;;8.61;100.00
38718;BME280;24468;52.128;9.278;2022-11-24T05:59:49;99831.03;;;8.67;100.00
38718;BME280;24468;52.128;9.278;2022-11-24T06:02:14;99820.03;;;8.72;100.00
38718;BME280;24468;52.128;9.278;2022-11-24T06:04:40;99825.00;;;8.62;100.00
38718;BME280;24468;52.128;9.278;2022-11-24T06:07:06;99833.94;;;8.62;100.00
38718;BME280;24468;52.128;9.278;2022-11-24T06:09:35;99827.53;;;8.65;100.00
38718;BME280;24468;52.128;9.278;2022-11-24T06:12:01;99835.47;;;8.68;100.00
38718;BME280;24468;52.128;9.278;2022-11-24T06:14:27;99830.06;;;8.68;100.00
38718;BME280;24468;52.128;9.278;2022-11-24T06:16:53;99836.97;;;8.74;100.00
38718;BME280;24468;52.128;9.278;2022-11-24T06:19:18;99832.47;;;8.74;100.00
38718;BME280;24468;52.128;9.278;2022-11-24T06:21:43;99836.63;;;8.62;100.00
38718;BME280;24468;52.128;9.278;2022-11-24T06:24:09;99838.16;;;8.68;100.00
38718;BME280;24468;52.128;9.278;2022-11-24T06:26:34;99834.22;;;8.75;100.00
38718;BME280;24468;52.128;9.278;2022-11-24T06:29:00;99843.00;;;8.60;100.00
38718;BME280;24468;52.128;9.278;2022-11-24T06:31:25;99852.03;;;8.40;100.00
38718;BME280;24468;52.128;9.278;2022-11-24T06:33:51;99851.09;;;8.20;100.00
38718;BME280;24468;52.128;9.278;2022-11-24T06:36:17;99855.03;;;7.93;100.00
38718;BME280;24468;52.128;9.278;2022-11-24T06:38:42;99856.72;;;7.95;100.00
38718;BME280;24468;52.128;9.278;2022-11-24T06:41:13;99861.41;;;7.70;100.00
38718;BME280;24468;52.128;9.278;2022-11-24T06:43:39;99866.34;;;7.58;100.00
38718;BME280;24468;52.128;9.278;2022-11-24T06:46:04;99865.69;;;7.53;100.00
38718;BME280;24468;52.128;9.278;2022-11-24T06:48:30;99867.56;;;7.51;100.00
38718;BME280;24468;52.128;9.278;2022-11-24T06:51:04;99872.69;;;7.57;100.00
38718;BME280;24468;52.128;9.278;2022-11-24T06:53:30;99865.41;;;7.60;100.00
38718;BME280;24468;52.128;9.278;2022-11-24T06:56:00;99876.25;;;7.36;100.00
38718;BME280;24468;52.128;9.278;2022-11-24T06:58:26;99875.09;;;7.43;100.00
38718;BME280;24468;52.128;9.278;2022-11-24T07:00:52;99882.59;;;7.35;100.00
38718;BME280;24468;52.128;9.278;2022-11-24T07:03:17;99897.78;;;7.34;100.00
38718;BME280;24468;52.128;9.278;2022-11-24T07:05:44;99894.91;;;7.39;100.00
38718;BME280;24468;52.128;9.278;2022-11-24T07:08:09;99906.94;;;7.51;100.00
38718;BME280;24468;52.128;9.278;2022-11-24T07:10:35;99914.00;;;7.53;100.00
38718;BME280;24468;52.128;9.278;2022-11-24T07:13:00;99915.75;;;7.54;100.00
38718;BME280;24468;52.128;9.278;2022-11-24T07:15:28;99912.13;;;7.55;100.00
38718;BME280;24468;52.128;9.278;2022-11-24T07:17:54;99913.22;;;7.72;100.00
38718;BME280;24468;52.128;9.278;2022-11-24T07:20:20;99915.31;;;7.86;100.00
38718;BME280;24468;52.128;9.278;2022-11-24T07:22:45;99917.81;;;7.90;100.00
38718;BME280;24468;52.128;9.278;2022-11-24T07:25:11;99925.47;;;7.99;100.00
38718;BME280;24468;52.128;9.278;2022-11-24T07:27:38;99923.91;;;8.14;100.00
38718;BME280;24468;52.128;9.278;2022-11-24T07:30:04;99929.59;;;8.27;100.00
38718;BME280;24468;52.128;9.278;2022-11-24T07:32:29;99932.16;;;8.30;100.00
38718;BME280;24468;52.128;9.278;2022-11-24T07:34:55;99933.91;;;8.31;100.00
38718;BME280;24468;52.128;9.278;2022-11-24T07:37:20;99949.09;;;8.32;100.00
38718;BME280;24468;52.128;9.278;2022-11-24T07:39:46;99949.81;;;8.36;100.00
38718;BME280;24468;52.128;9.278;2022-11-24T07:42:11;99956.50;;;8.48;100.00
38718;BME280;24468;52.128;9.278;2022-11-24T07:44:36;99956.94;;;8.57;100.00
38718;BME280;24468;52.128;9.278;2022-11-24T07:47:02;99954.94;;;8.62;100.00
38718;BME280;24468;52.128;9.278;2022-11-24T07:49:27;99959.97;;;8.70;100.00
38718;BME280;24468;52.128;9.278;2022-11-24T07:51:53;99963.31;;;8.75;100.00
38718;BME280;24468;52.128;9.278;2022-11-24T07:54:18;99959.47;;;8.81;100.00
38718;BME280;24468;52.128;9.278;2022-11-24T07:56:47;99962.16;;;8.81;100.00
38718;BME280;24468;52.128;9.278;2022-11-24T07:59:12;99967.31;;;8.85;100.00
38718;BME280;24468;52.128;9.278;2022-11-24T08:01:38;99969.78;;;8.90;100.00
38718;BME280;24468;52.128;9.278;2022-11-24T08:04:03;99966.59;;;9.01;100.00
38718;BME280;24468;52.128;9.278;2022-11-24T08:06:29;99977.06;;;9.07;100.00
38718;BME280;24468;52.128;9.278;2022-11-24T08:08:55;99971.38;;;9.13;100.00
38718;BME280;24468;52.128;9.278;2022-11-24T08:11:21;99977.56;;;9.15;100.00
38718;BME280;24468;52.128;9.278;2022-11-24T08:13:46;99979.09;;;9.21;100.00
38718;BME280;24468;52.128;9.278;2022-11-24T08:16:14;99979.03;;;9.22;100.00
38718;BME280;24468;52.128;9.278;2022-11-24T08:18:40;99981.72;;;9.22;100.00
38718;BME280;24468;52.128;9.278;2022-11-24T08:21:06;99983.09;;;9.31;100.00
38718;BME280;24468;52.128;9.278;2022-11-24T08:23:32;99981.78;;;9.40;100.00
38718;BME280;24468;52.128;9.278;2022-11-24T08:25:58;99980.88;;;9.58;100.00
38718;BME280;24468;52.128;9.278;2022-11-24T08:28:30;99979.88;;;9.61;100.00
38718;BME280;24468;52.128;9.278;2022-11-24T08:31:06;99980.75;;;9.61;100.00
38718;BME280;24468;52.128;9.278;2022-11-24T08:33:33;99983.75;;;9.55;100.00
38718;BME280;24468;52.128;9.278;2022-11-24T08:36:07;99987.56;;;9.68;100.00
38718;BME280;24468;52.128;9.278;2022-11-24T08:38:32;99991.16;;;9.50;100.00
38718;BME280;24468;52.128;9.278;2022-11-24T08:41:00;99982.06;;;9.52;100.00
38718;BME280;24468;52.128;9.278;2022-11-24T08:43:26;99985.63;;;9.53;100.00
38718;BME280;24468;52.128;9.278;2022-11-24T08:45:51;99995.09;;;9.43;100.00
38718;BME280;24468;52.128;9.278;2022-11-24T08:48:17;99997.94;;;9.40;100.00
38718;BME280;24468;52.128;9.278;2022-11-24T08:50:42;100000.84;;;9.35;100.00
38718;BME280;24468;52.128;9.278;2022-11-24T08:53:07;100010.81;;;9.52;100.00
38718;BME280;24468;52.128;9.278;2022-11-24T08:55:33;100008.16;;;9.69;100.00
38718;BME280;24468;52.128;9.278;2022-11-24T08:57:58;100008.03;;;9.90;100.00
38718;BME280;24468;52.128;9.278;2022-11-24T09:00:24;100006.50;;;9.67;100.00
38718;BME280;24468;52.128;9.278;2022-11-24T09:02:57;100006.34;;;9.87;100.00
38718;BME280;24468;52.128;9.278;2022-11-24T09:05:23;100018.75;;;9.91;100.00
38718;BME280;24468;52.128;9.278;2022-11-24T09:07:48;100016.00;;;9.93;100.00
38718;BME280;24468;52.128;9.278;2022-11-24T09:10:14;100022.28;;;9.74;100.00
38718;BME280;24468;52.128;9.278;2022-11-24T09:12:39;100025.47;;;9.83;100.00
38718;BME280;24468;52.128;9.278;2022-11-24T09:15:05;100024.63;;;9.63;100.00
38718;BME280;24468;52.128;9.278;2022-11-24T09:17:32;100022.38;;;9.54;100.00
38718;BME280;24468;52.128;9.278;2022-11-24T09:19:57;100022.97;;;9.61;100.00
38718;BME280;24468;52.128;9.278;2022-11-24T09:22:23;100035.47;;;9.62;100.00
38718;BME280;24468;52.128;9.278;2022-11-24T09:24:48;100033.03;;;9.38;100.00
38718;BME280;24468;52.128;9.278;2022-11-24T09:27:13;100035.41;;;9.44;100.00
38718;BME280;24468;52.128;9.278;2022-11-24T09:29:39;100039.78;;;9.47;100.00
38718;BME280;24468;52.128;9.278;2022-11-24T09:32:04;100035.06;;;9.52;100.00
38718;BME280;24468;52.128;9.278;2022-11-24T09:34:30;100038.38;;;9.57;100.00
38718;BME280;24468;52.128;9.278;2022-11-24T09:36:55;100034.47;;;9.82;100.00
38718;BME280;24468;52.128;9.278;2022-11-24T09:39:23;100036.09;;;9.86;100.00
38718;BME280;24468;52.128;9.278;2022-11-24T09:42:03;100042.97;;;9.74;100.00
38718;BME280;24468;52.128;9.278;2022-11-24T09:47:36;100052.06;;;10.08;100.00
38718;BME280;24468;52.128;9.278;2022-11-24T09:50:21;100044.16;;;10.22;100.00
38718;BME280;24468;52.128;9.278;2022-11-24T09:55:35;100050.78;;;10.51;100.00
38718;BME280;24468;52.128;9.278;2022-11-24T10:00:33;100049.81;;;10.70;100.00
38718;BME280;24468;52.128;9.278;2022-11-24T10:03:00;100059.25;;;10.78;100.00
38718;BME280;24468;52.128;9.278;2022-11-24T10:05:26;100063.69;;;10.44;100.00
38718;BME280;24468;52.128;9.278;2022-11-24T10:08:16;100063.38;;;10.68;100.00
38718;BME280;24468;52.128;9.278;2022-11-24T10:11:14;100053.78;;;10.62;100.00
38718;BME280;24468;52.128;9.278;2022-11-24T10:25:19;100062.75;;;11.94;100.00
38718;BME280;24468;52.128;9.278;2022-11-24T10:28:04;100071.09;;;11.58;100.00
38718;BME280;24468;52.128;9.278;2022-11-24T10:30:33;100069.78;;;11.65;100.00
38718;BME280;24468;52.128;9.278;2022-11-24T10:33:23;100074.41;;;11.47;100.00
38718;BME280;24468;52.128;9.278;2022-11-24T10:35:55;100076.72;;;11.38;100.00
38718;BME280;24468;52.128;9.278;2022-11-24T10:39:09;100072.28;;;11.37;100.00
38718;BME280;24468;52.128;9.278;2022-11-24T10:41:58;100073.84;;;11.41;100.00
38718;BME280;24468;52.128;9.278;2022-11-24T10:44:24;100071.00;;;11.60;100.00
38718;BME280;24468;52.128;9.278;2022-11-24T10:46:50;100080.34;;;11.70;100.00
38718;BME280;24468;52.128;9.278;2022-11-24T10:49:18;100078.59;;;11.53;100.00
38718;BME280;24468;52.128;9.278;2022-11-24T10:54:30;100079.34;;;11.39;100.00
38718;BME280;24468;52.128;9.278;2022-11-24T10:56:56;100069.94;;;11.30;100.00
38718;BME280;24468;52.128;9.278;2022-11-24T10:59:29;100078.63;;;11.02;100.00
38718;BME280;24468;52.128;9.278;2022-11-24T11:01:56;100086.41;;;10.75;100.00
38718;BME280;24468;52.128;9.278;2022-11-24T11:04:27;100065.19;;;10.85;100.00
38718;BME280;24468;52.128;9.278;2022-11-24T11:09:38;100072.44;;;11.18;100.00
38718;BME280;24468;52.128;9.278;2022-11-24T11:12:26;100075.19;;;11.16;100.00
38718;BME280;24468;52.128;9.278;2022-11-24T11:14:52;100080.13;;;11.25;100.00
38718;BME280;24468;52.128;9.278;2022-11-24T11:17:35;100086.59;;;10.88;100.00
38718;BME280;24468;52.128;9.278;2022-11-24T11:20:21;100078.59;;;10.69;100.00
38718;BME280;24468;52.128;9.278;2022-11-24T11:22:49;100085.75;;;10.70;100.00
38718;BME280;24468;52.128;9.278;2022-11-24T11:25:19;100086.00;;;10.65;100.00
38718;BME280;24468;52.128;9.278;2022-11-24T11:27:46;100094.97;;;10.83;100.00
38718;BME280;24468;52.128;9.278;2022-11-24T11:35:30;100096.47;;;10.37;100.00
38718;BME280;24468;52.128;9.278;2022-11-24T11:37:58;100102.66;;;10.56;100.00
38718;BME280;24468;52.128;9.278;2022-11-24T11:40:27;100104.72;;;10.51;100.00
38718;BME280;24468;52.128;9.278;2022-11-24T11:42:59;100113.91;;;10.47;100.00
38718;BME280;24468;52.128;9.278;2022-11-24T11:45:31;100117.56;;;10.46;100.00
38718;BME280;24468;52.128;9.278;2022-11-24T11:55:52;100132.06;;;10.43;100.00
38718;BME280;24468;52.128;9.278;2022-11-24T12:06:20;100148.59;;;10.55;100.00
38718;BME280;24468;52.128;9.278;2022-11-24T12:09:16;100149.06;;;10.27;100.00
38718;BME280;24468;52.128;9.278;2022-11-24T12:12:29;100155.00;;;10.35;100.00
38718;BME280;24468;52.128;9.278;2022-11-24T12:15:06;100153.81;;;10.21;100.00
38718;BME280;24468;52.128;9.278;2022-11-24T12:17:54;100153.72;;;10.42;100.00
38718;BME280;24468;52.128;9.278;2022-11-24T12:20:36;100162.75;;;10.22;100.00
38718;BME280;24468;52.128;9.278;2022-11-24T12:23:06;100158.06;;;10.27;100.00
38718;BME280;24468;52.128;9.278;2022-11-24T12:25:46;100156.97;;;10.31;100.00
38718;BME280;24468;52.128;9.278;2022-11-24T12:28:23;100153.59;;;10.45;100.00
38718;BME280;24468;52.128;9.278;2022-11-24T12:31:04;100157.53;;;10.38;100.00
38718;BME280;24468;52.128;9.278;2022-11-24T12:33:36;100162.91;;;10.38;100.00
38718;BME280;24468;52.128;9.278;2022-11-24T12:36:13;100169.28;;;9.99;100.00
38718;BME280;24468;52.128;9.278;2022-11-24T12:41:52;100169.94;;;10.04;100.00
38718;BME280;24468;52.128;9.278;2022-11-24T12:44:53;100173.34;;;10.27;100.00
38718;BME280;24468;52.128;9.278;2022-11-24T12:50:11;100169.28;;;9.99;100.00
38718;BME280;24468;52.128;9.278;2022-11-24T12:52:43;100173.28;;;10.09;100.00
38718;BME280;24468;52.128;9.278;2022-11-24T12:55:18;100176.63;;;9.95;100.00
38718;BME280;24468;52.128;9.278;2022-11-24T12:57:54;100188.28;;;9.96;100.00
38718;BME280;24468;52.128;9.278;2022-11-24T13:00:29;100184.78;;;9.94;100.00
38718;BME280;24468;52.128;9.278;2022-11-24T13:05:58;100182.75;;;9.99;100.00
38718;BME280;24468;52.128;9.278;2022-11-24T13:08:26;100190.91;;;9.97;100.00
38718;BME280;24468;52.128;9.278;2022-11-24T13:10:52;100198.78;;;10.02;100.00
38718;BME280;24468;52.128;9.278;2022-11-24T13:13:17;100196.72;;;9.88;100.00
38718;BME280;24468;52.128;9.278;2022-11-24T13:23:56;100212.28;;;9.82;100.00
38718;BME280;24468;52.128;9.278;2022-11-24T13:26:49;100222.28;;;9.79;100.00
38718;BME280;24468;52.128;9.278;2022-11-24T13:29:37;100226.44;;;9.87;100.00
38718;BME280;24468;52.128;9.278;2022-11-24T13:39:50;100232.13;;;9.80;100.00
38718;BME280;24468;52.128;9.278;2022-11-24T13:42:16;100224.81;;;9.64;100.00
38718;BME280;24468;52.128;9.278;2022-11-24T13:50:13;100237.47;;;10.01;100.00
38718;BME280;24468;52.128;9.278;2022-11-24T13:55:31;100237.88;;;9.92;100.00
38718;BME280;24468;52.128;9.278;2022-11-24T14:03:55;100247.13;;;9.86;100.00
38718;BME280;24468;52.128;9.278;2022-11-24T14:12:06;100252.75;;;10.19;100.00
38718;BME280;24468;52.128;9.278;2022-11-24T14:14:32;100257.44;;;10.35;100.00
38718;BME280;24468;52.128;9.278;2022-11-24T14:17:18;100257.81;;;10.27;100.00
38718;BME280;24468;52.128;9.278;2022-11-24T14:19:46;100256.97;;;10.25;100.00
38718;BME280;24468;52.128;9.278;2022-11-24T14:24:43;100259.81;;;10.03;100.00
38718;BME280;24468;52.128;9.278;2022-11-24T14:27:14;100263.16;;;10.29;100.00
38718;BME280;24468;52.128;9.278;2022-11-24T14:29:51;100273.53;;;10.36;100.00
38718;BME280;24468;52.128;9.278;2022-11-24T14:32:17;100269.88;;;9.99;100.00
38718;BME280;24468;52.128;9.278;2022-11-24T14:34:43;100286.59;;;10.06;100.00
38718;BME280;24468;52.128;9.278;2022-11-24T14:37:08;100279.94;;;10.15;100.00
38718;BME280;24468;52.128;9.278;2022-11-24T14:39:39;100274.88;;;10.28;100.00
38718;BME280;24468;52.128;9.278;2022-11-24T14:42:16;100271.75;;;10.16;100.00
38718;BME280;24468;52.128;9.278;2022-11-24T14:44:46;100270.63;;;10.41;100.00